createdAt,value
2017-01-30T00:00:05.209Z,0
2017-01-30T00:01:05.585Z,0
2017-01-30T00:02:05.551Z,0
2017-01-30T00:03:05.538Z,0
2017-01-30T00:04:05.520Z,0
2017-01-30T00:05:05.488Z,0
2017-01-30T00:06:05.101Z,0
2017-01-30T00:07:05.460Z,0
2017-01-30T00:08:05.438Z,0
2017-01-30T00:09:05.408Z,0
2017-01-30T00:10:05.403Z,0
2017-01-30T00:11:05.394Z,0
2017-01-30T00:12:05.365Z,0
2017-01-30T00:13:05.350Z,0
2017-01-30T00:14:05.342Z,0
2017-01-30T00:15:04.931Z,0
2017-01-30T00:16:05.284Z,0
2017-01-30T00:17:05.265Z,0
2017-01-30T00:18:05.267Z,0
2017-01-30T00:19:05.253Z,0
2017-01-30T00:20:04.846Z,0
2017-01-30T00:21:05.180Z,0
2017-01-30T00:22:05.180Z,0
2017-01-30T00:23:05.158Z,0
2017-01-30T00:24:05.167Z,0
2017-01-30T00:25:05.126Z,0
2017-01-30T00:26:05.110Z,0
2017-01-30T00:27:05.075Z,0
2017-01-30T00:28:05.060Z,0
2017-01-30T00:29:05.024Z,0
2017-01-30T00:30:04.996Z,0
2017-01-30T00:31:05.004Z,0
2017-01-30T00:32:04.965Z,0
2017-01-30T00:33:04.962Z,0
2017-01-30T00:34:04.929Z,0
2017-01-30T00:35:04.933Z,0
2017-01-30T00:36:04.892Z,0
2017-01-30T00:37:04.882Z,0
2017-01-30T00:38:04.860Z,0
2017-01-30T00:39:04.841Z,0
2017-01-30T00:40:04.813Z,0
2017-01-30T00:41:04.791Z,0
2017-01-30T00:42:04.766Z,0
2017-01-30T00:43:04.756Z,0
2017-01-30T00:44:04.750Z,0
2017-01-30T00:45:04.720Z,0
2017-01-30T00:46:04.698Z,0
2017-01-30T00:47:04.677Z,0
2017-01-30T00:48:04.654Z,0
2017-01-30T00:49:04.633Z,0
2017-01-30T00:50:04.623Z,0
2017-01-30T00:51:04.582Z,0
2017-01-30T00:52:04.579Z,0
2017-01-30T00:53:04.556Z,0
2017-01-30T00:54:04.527Z,0
2017-01-30T00:55:04.524Z,0
2017-01-30T00:56:04.502Z,0
2017-01-30T00:57:04.460Z,0
2017-01-30T00:58:04.453Z,0
2017-01-30T00:59:04.433Z,0
2017-01-30T01:00:04.411Z,0
2017-01-30T01:01:04.398Z,0
2017-01-30T01:02:04.360Z,0
2017-01-30T01:03:04.347Z,0
2017-01-30T01:04:04.338Z,0
2017-01-30T01:05:04.311Z,0
2017-01-30T01:06:04.308Z,0
2017-01-30T01:07:04.253Z,0
2017-01-30T01:08:04.251Z,0
2017-01-30T01:09:04.216Z,0
2017-01-30T01:10:04.249Z,0
2017-01-30T01:11:04.186Z,0
2017-01-30T01:12:04.159Z,0
2017-01-30T01:13:03.757Z,0
2017-01-30T01:14:04.124Z,0
2017-01-30T01:15:04.096Z,0
2017-01-30T01:16:04.083Z,0
2017-01-30T01:17:04.044Z,0
2017-01-30T01:18:04.032Z,0
2017-01-30T01:19:04.026Z,0
2017-01-30T01:20:03.983Z,0
2017-01-30T01:21:03.966Z,0
2017-01-30T01:22:03.959Z,0
2017-01-30T01:23:03.940Z,0
2017-01-30T01:24:03.920Z,0
2017-01-30T01:25:03.902Z,0
2017-01-30T01:26:03.881Z,0
2017-01-30T01:27:03.837Z,0
2017-01-30T01:28:03.809Z,0
2017-01-30T01:29:03.825Z,0
2017-01-30T01:30:03.792Z,0
2017-01-30T01:31:03.779Z,0
2017-01-30T01:32:03.752Z,0
2017-01-30T01:33:03.748Z,0
2017-01-30T01:34:03.712Z,0
2017-01-30T01:35:03.694Z,0
2017-01-30T01:36:03.680Z,0
2017-01-30T01:37:03.639Z,0
2017-01-30T01:38:03.232Z,0
2017-01-30T01:39:03.598Z,0
2017-01-30T01:40:03.583Z,0
2017-01-30T01:41:03.572Z,0
2017-01-30T01:42:03.541Z,0
2017-01-30T01:43:03.516Z,0
2017-01-30T01:44:03.506Z,0
2017-01-30T01:45:03.485Z,0
2017-01-30T01:46:03.455Z,0
2017-01-30T01:47:03.433Z,0
2017-01-30T01:48:03.407Z,0
2017-01-30T01:49:03.418Z,0
2017-01-30T01:50:03.356Z,0
2017-01-30T01:51:03.350Z,0
2017-01-30T01:52:03.324Z,0
2017-01-30T01:53:03.320Z,0
2017-01-30T01:54:03.292Z,0
2017-01-30T01:55:03.279Z,0
2017-01-30T01:56:03.246Z,0
2017-01-30T01:57:03.221Z,0
2017-01-30T01:58:03.221Z,0
2017-01-30T01:59:03.209Z,0
2017-01-30T02:00:03.170Z,0
2017-01-30T02:01:03.172Z,0
2017-01-30T02:02:02.739Z,0
2017-01-30T02:03:03.121Z,0
2017-01-30T02:04:03.086Z,0
2017-01-30T02:05:03.069Z,0
2017-01-30T02:06:03.056Z,0
2017-01-30T02:07:03.040Z,0
2017-01-30T02:08:03.010Z,0
2017-01-30T02:09:02.983Z,0
2017-01-30T02:10:02.951Z,0
2017-01-30T02:11:02.948Z,0
2017-01-30T02:12:02.933Z,0
2017-01-30T02:13:02.923Z,0
2017-01-30T02:14:02.904Z,0
2017-01-30T02:15:02.860Z,0
2017-01-30T02:16:02.855Z,0
2017-01-30T02:17:02.836Z,0
2017-01-30T02:18:02.816Z,0
2017-01-30T02:19:02.778Z,0
2017-01-30T02:20:02.756Z,0
2017-01-30T02:21:02.745Z,0
2017-01-30T02:22:02.725Z,0
2017-01-30T02:23:02.699Z,0
2017-01-30T02:24:02.678Z,0
2017-01-30T02:25:02.678Z,0
2017-01-30T02:26:02.636Z,0
2017-01-30T02:27:02.638Z,0
2017-01-30T02:28:02.595Z,0
2017-01-30T02:29:02.588Z,0
2017-01-30T02:30:02.568Z,0
2017-01-30T02:31:02.536Z,0
2017-01-30T02:32:02.522Z,0
2017-01-30T02:33:02.516Z,0
2017-01-30T02:34:02.501Z,0
2017-01-30T02:35:02.447Z,0
2017-01-30T02:36:02.450Z,0
2017-01-30T02:37:02.419Z,0
2017-01-30T02:38:02.412Z,0
2017-01-30T02:39:02.384Z,0
2017-01-30T02:40:02.367Z,0
2017-01-30T02:41:02.337Z,0
2017-01-30T02:42:02.324Z,0
2017-01-30T02:43:02.306Z,0
2017-01-30T02:44:02.325Z,0
2017-01-30T02:45:02.274Z,0
2017-01-30T02:46:02.242Z,0
2017-01-30T02:47:02.207Z,0
2017-01-30T02:48:02.209Z,0
2017-01-30T02:49:02.188Z,0
2017-01-30T02:50:02.179Z,0
2017-01-30T02:51:02.146Z,0
2017-01-30T02:52:02.108Z,0
2017-01-30T02:53:02.098Z,0
2017-01-30T02:54:02.092Z,0
2017-01-30T02:55:02.086Z,0
2017-01-30T02:56:02.033Z,0
2017-01-30T02:57:02.041Z,0
2017-01-30T02:58:02.008Z,0
2017-01-30T02:59:01.986Z,0
2017-01-30T03:00:01.969Z,0
2017-01-30T03:01:01.945Z,0
2017-01-30T03:02:01.917Z,0
2017-01-30T03:03:01.896Z,0
2017-01-30T03:04:01.916Z,0
2017-01-30T03:05:01.880Z,0
2017-01-30T03:06:01.843Z,0
2017-01-30T03:07:01.811Z,0
2017-01-30T03:08:01.815Z,0
2017-01-30T03:09:01.786Z,0
2017-01-30T03:10:01.768Z,0
2017-01-30T03:11:01.739Z,0
2017-01-30T03:12:01.705Z,0
2017-01-30T03:13:01.692Z,0
2017-01-30T03:14:01.685Z,0
2017-01-30T03:15:01.665Z,0
2017-01-30T03:16:01.691Z,0
2017-01-30T03:17:01.631Z,0
2017-01-30T03:18:01.603Z,0
2017-01-30T03:19:01.577Z,0
2017-01-30T03:20:01.560Z,0
2017-01-30T03:21:01.538Z,0
2017-01-30T03:22:01.524Z,0
2017-01-30T03:23:01.497Z,0
2017-01-30T03:24:01.476Z,0
2017-01-30T03:25:01.467Z,0
2017-01-30T03:26:01.428Z,0
2017-01-30T03:27:01.426Z,0
2017-01-30T03:28:01.403Z,0
2017-01-30T03:29:01.387Z,0
2017-01-30T03:30:01.355Z,0
2017-01-30T03:31:01.329Z,0
2017-01-30T03:32:01.313Z,0
2017-01-30T03:33:01.298Z,0
2017-01-30T03:34:01.268Z,0
2017-01-30T03:35:01.254Z,0
2017-01-30T03:36:01.229Z,0
2017-01-30T03:37:01.246Z,0
2017-01-30T03:38:01.185Z,0
2017-01-30T03:39:01.186Z,0
2017-01-30T03:40:01.165Z,0
2017-01-30T03:41:01.146Z,0
2017-01-30T03:42:01.115Z,0
2017-01-30T03:43:01.098Z,0
2017-01-30T03:44:01.094Z,0
2017-01-30T03:45:01.055Z,0
2017-01-30T03:46:01.048Z,0
2017-01-30T03:47:01.025Z,0
2017-01-30T03:48:00.994Z,0
2017-01-30T03:49:00.994Z,0
2017-01-30T03:50:00.975Z,0
2017-01-30T03:51:00.945Z,0
2017-01-30T03:52:00.921Z,0
2017-01-30T03:53:00.907Z,0
2017-01-30T03:54:00.876Z,0
2017-01-30T03:55:00.885Z,0
2017-01-30T03:56:00.845Z,0
2017-01-30T03:57:00.821Z,0
2017-01-30T03:58:00.816Z,0
2017-01-30T03:59:00.776Z,0
2017-01-30T04:00:00.747Z,0
2017-01-30T04:01:00.738Z,0
2017-01-30T04:02:00.714Z,0
2017-01-30T04:03:00.692Z,0
2017-01-30T04:04:00.680Z,0
2017-01-30T04:05:00.667Z,0
2017-01-30T04:06:00.672Z,0
2017-01-30T04:07:00.615Z,0
2017-01-30T04:08:00.233Z,0
2017-01-30T04:09:00.188Z,0
2017-01-30T04:10:00.583Z,0
2017-01-30T04:11:00.551Z,0
2017-01-30T04:12:00.132Z,0
2017-01-30T04:13:00.502Z,0
2017-01-30T04:14:00.479Z,0
2017-01-30T04:15:00.464Z,0
2017-01-30T04:16:00.453Z,0
2017-01-30T04:17:00.440Z,0
2017-01-30T04:18:00.407Z,0
2017-01-30T04:19:00.377Z,0
2017-01-30T04:20:00.357Z,0
2017-01-30T04:21:00.338Z,0
2017-01-30T04:22:00.329Z,0
2017-01-30T04:23:00.284Z,0
2017-01-30T04:24:00.298Z,0
2017-01-30T04:25:00.258Z,0
2017-01-30T04:26:00.250Z,0
2017-01-30T04:27:00.226Z,0
2017-01-30T04:28:00.194Z,0
2017-01-30T04:29:00.185Z,0
2017-01-30T04:30:00.175Z,0
2017-01-30T04:31:00.133Z,0
2017-01-30T04:32:00.121Z,0
2017-01-30T04:33:00.084Z,0
2017-01-30T04:34:00.083Z,0
2017-01-30T04:35:00.073Z,0
2017-01-30T04:36:00.034Z,0
2017-01-30T04:37:00.013Z,0
2017-01-30T04:38:00.005Z,0
2017-01-30T04:38:59.572Z,0
2017-01-30T04:39:59.950Z,0
2017-01-30T04:40:59.970Z,0
2017-01-30T04:41:59.934Z,0
2017-01-30T04:42:59.905Z,0
2017-01-30T04:43:59.877Z,0
2017-01-30T04:44:59.840Z,0
2017-01-30T04:45:59.815Z,0
2017-01-30T04:46:59.804Z,0
2017-01-30T04:47:59.393Z,0
2017-01-30T04:48:59.767Z,0
2017-01-30T04:49:59.770Z,0
2017-01-30T04:50:59.716Z,0
2017-01-30T04:51:59.705Z,0
2017-01-30T04:52:59.677Z,0
2017-01-30T04:53:59.667Z,0
2017-01-30T04:54:59.627Z,0
2017-01-30T04:55:59.621Z,0
2017-01-30T04:56:59.598Z,0
2017-01-30T04:57:59.185Z,0
2017-01-30T04:58:59.563Z,0
2017-01-30T04:59:59.520Z,0
2017-01-30T05:00:59.500Z,0
2017-01-30T05:01:59.481Z,0
2017-01-30T05:02:59.468Z,0
2017-01-30T05:03:59.451Z,0
2017-01-30T05:04:59.035Z,0
2017-01-30T05:05:59.403Z,0
2017-01-30T05:06:59.385Z,0
2017-01-30T05:07:59.373Z,0
2017-01-30T05:08:59.371Z,0
2017-01-30T05:09:59.320Z,0
2017-01-30T05:10:59.304Z,0
2017-01-30T05:11:59.283Z,0
2017-01-30T05:12:59.257Z,0
2017-01-30T05:13:59.229Z,0
2017-01-30T05:14:59.217Z,0
2017-01-30T05:15:59.189Z,0
2017-01-30T05:16:59.165Z,0
2017-01-30T05:17:59.132Z,0
2017-01-30T05:18:59.130Z,0
2017-01-30T05:19:59.107Z,0
2017-01-30T05:20:59.078Z,0
2017-01-30T05:21:59.062Z,0
2017-01-30T05:22:59.034Z,0
2017-01-30T05:23:59.028Z,0
2017-01-30T05:24:58.990Z,0
2017-01-30T05:25:58.980Z,0
2017-01-30T05:26:58.559Z,0
2017-01-30T05:27:58.919Z,0
2017-01-30T05:28:58.909Z,0
2017-01-30T05:29:58.516Z,0
2017-01-30T05:30:58.878Z,0
2017-01-30T05:31:58.841Z,0
2017-01-30T05:32:58.443Z,0
2017-01-30T05:33:58.424Z,0
2017-01-30T05:34:58.790Z,0
2017-01-30T05:35:58.747Z,0
2017-01-30T05:36:58.745Z,0
2017-01-30T05:37:58.708Z,0
2017-01-30T05:38:58.333Z,0
2017-01-30T05:39:58.283Z,0
2017-01-30T05:40:58.652Z,0
2017-01-30T05:41:58.638Z,0
2017-01-30T05:42:58.226Z,0
2017-01-30T05:43:58.584Z,0
2017-01-30T05:44:58.559Z,0
2017-01-30T05:45:58.556Z,0
2017-01-30T05:46:58.511Z,0
2017-01-30T05:47:58.489Z,0
2017-01-30T05:48:58.459Z,0
2017-01-30T05:49:58.455Z,0
2017-01-30T05:50:58.429Z,0
2017-01-30T05:51:58.411Z,0
2017-01-30T05:52:58.019Z,0
2017-01-30T05:53:58.356Z,0
2017-01-30T05:54:58.366Z,0
2017-01-30T05:55:58.321Z,0
2017-01-30T05:56:58.304Z,0
2017-01-30T05:57:58.281Z,0
2017-01-30T05:58:58.267Z,0
2017-01-30T05:59:58.253Z,0
2017-01-30T06:00:58.210Z,0
2017-01-30T06:01:58.209Z,0
2017-01-30T06:02:58.188Z,0
2017-01-30T06:03:58.136Z,0
2017-01-30T06:04:58.130Z,4
2017-01-30T06:05:58.091Z,4
2017-01-30T06:06:58.089Z,0
2017-01-30T06:07:58.067Z,0
2017-01-30T06:08:57.648Z,4
2017-01-30T06:09:58.026Z,0
2017-01-30T06:10:57.996Z,4
2017-01-30T06:11:57.975Z,4
2017-01-30T06:12:57.939Z,4
2017-01-30T06:13:57.943Z,4
2017-01-30T06:14:57.941Z,4
2017-01-30T06:15:57.897Z,8
2017-01-30T06:16:57.472Z,8
2017-01-30T06:17:57.847Z,12
2017-01-30T06:18:57.828Z,16
2017-01-30T06:19:57.815Z,20
2017-01-30T06:20:57.406Z,24
2017-01-30T06:21:57.776Z,24
2017-01-30T06:22:57.744Z,32
2017-01-30T06:23:57.728Z,40
2017-01-30T06:24:57.731Z,44
2017-01-30T06:25:57.679Z,52
2017-01-30T06:26:57.664Z,68
2017-01-30T06:27:57.635Z,80
2017-01-30T06:28:57.614Z,96
2017-01-30T06:29:57.596Z,116
2017-01-30T06:30:57.590Z,140
2017-01-30T06:31:57.566Z,164
2017-01-30T06:32:57.533Z,192
2017-01-30T06:33:57.511Z,220
2017-01-30T06:34:57.548Z,256
2017-01-30T06:35:57.486Z,284
2017-01-30T06:36:57.073Z,312
2017-01-30T06:37:57.449Z,332
2017-01-30T06:38:57.391Z,356
2017-01-30T06:39:57.600Z,384
2017-01-30T06:40:57.366Z,428
2017-01-30T06:41:56.953Z,480
2017-01-30T06:42:57.313Z,552
2017-01-30T06:43:57.331Z,624
2017-01-30T06:44:57.497Z,696
2017-01-30T06:45:57.478Z,780
2017-01-30T06:46:57.243Z,872
2017-01-30T06:47:57.226Z,968
2017-01-30T06:48:57.211Z,1036
2017-01-30T06:49:57.378Z,1064
2017-01-30T06:50:57.156Z,1100
2017-01-30T06:51:57.128Z,1168
2017-01-30T06:52:57.113Z,1256
2017-01-30T06:53:57.097Z,1360
2017-01-30T06:54:57.075Z,1472
2017-01-30T06:55:57.036Z,1608
2017-01-30T06:56:57.019Z,1816
2017-01-30T06:57:57.016Z,2124
2017-01-30T06:58:56.604Z,2444
2017-01-30T06:59:56.954Z,2696
2017-01-30T07:00:56.955Z,2880
2017-01-30T07:01:56.937Z,3056
2017-01-30T07:02:56.915Z,3232
2017-01-30T07:03:56.884Z,3408
2017-01-30T07:04:56.867Z,3580
2017-01-30T07:05:56.845Z,3736
2017-01-30T07:06:56.820Z,3884
2017-01-30T07:07:56.803Z,4024
2017-01-30T07:08:56.789Z,4068
2017-01-30T07:09:56.776Z,3780
2017-01-30T07:10:56.763Z,3504
2017-01-30T07:11:56.744Z,3556
2017-01-30T07:13:09.964Z,3716
2017-01-30T07:13:56.693Z,3848
2017-01-30T07:14:56.672Z,3968
2017-01-30T07:15:56.664Z,4064
2017-01-30T07:16:56.636Z,4204
2017-01-30T07:17:56.596Z,4468
2017-01-30T07:18:56.802Z,4864
2017-01-30T07:19:56.586Z,5352
2017-01-30T07:20:56.545Z,5680
2017-01-30T07:21:56.537Z,5860
2017-01-30T07:22:56.516Z,5960
2017-01-30T07:23:56.688Z,6036
2017-01-30T07:24:56.470Z,6164
2017-01-30T07:25:56.454Z,6316
2017-01-30T07:26:56.444Z,6396
2017-01-30T07:27:56.421Z,6420
2017-01-30T07:28:56.402Z,6572
2017-01-30T07:29:56.368Z,6728
2017-01-30T07:30:56.358Z,6780
2017-01-30T07:31:56.330Z,6924
2017-01-30T07:32:56.307Z,6948
2017-01-30T07:33:56.286Z,6848
2017-01-30T07:34:56.264Z,6776
2017-01-30T07:35:56.251Z,6664
2017-01-30T07:36:56.231Z,6616
2017-01-30T07:37:55.827Z,6640
2017-01-30T07:38:56.192Z,6708
2017-01-30T07:39:56.167Z,6780
2017-01-30T07:40:56.170Z,6820
2017-01-30T07:41:56.146Z,6860
2017-01-30T07:42:55.737Z,6908
2017-01-30T07:43:56.101Z,6976
2017-01-30T07:44:56.070Z,7052
2017-01-30T07:46:09.305Z,7084
2017-01-30T07:46:55.869Z,7080
2017-01-30T07:47:55.654Z,7040
2017-01-30T07:48:55.989Z,6956
2017-01-30T07:50:10.125Z,6912
2017-01-30T07:50:55.963Z,6904
2017-01-30T07:51:55.760Z,6920
2017-01-30T07:52:55.947Z,6944
2017-01-30T07:53:55.908Z,6972
2017-01-30T07:54:55.897Z,7024
2017-01-30T07:55:55.863Z,7088
2017-01-30T07:56:55.845Z,7180
2017-01-30T07:57:55.824Z,7296
2017-01-30T07:58:55.821Z,7424
2017-01-30T07:59:55.781Z,7564
2017-01-30T08:00:55.770Z,7744
2017-01-30T08:01:55.759Z,7976
2017-01-30T08:02:55.736Z,8140
2017-01-30T08:03:55.716Z,8264
2017-01-30T08:04:55.699Z,8432
2017-01-30T08:05:55.676Z,8580
2017-01-30T08:06:54.888Z,8716
2017-01-30T08:07:55.620Z,8848
2017-01-30T08:08:55.627Z,9000
2017-01-30T08:09:55.589Z,9212
2017-01-30T08:10:55.588Z,9508
2017-01-30T08:11:55.557Z,9884
2017-01-30T08:12:55.529Z,10136
2017-01-30T08:13:55.505Z,10508
2017-01-30T08:14:55.493Z,11004
2017-01-30T08:15:55.085Z,12332
2017-01-30T08:16:55.066Z,12904
2017-01-30T08:17:55.445Z,13732
2017-01-30T08:18:55.614Z,14692
2017-01-30T08:19:55.398Z,15272
2017-01-30T08:20:55.362Z,15708
2017-01-30T08:21:55.344Z,16928
2017-01-30T08:22:55.336Z,17216
2017-01-30T08:23:55.316Z,17568
2017-01-30T08:24:55.497Z,17696
2017-01-30T08:25:55.268Z,17696
2017-01-30T08:26:55.253Z,18272
2017-01-30T08:27:55.227Z,18368
2017-01-30T08:28:55.242Z,18560
2017-01-30T08:29:55.196Z,18144
2017-01-30T08:30:55.168Z,17248
2017-01-30T08:31:55.152Z,16132
2017-01-30T08:32:55.140Z,15344
2017-01-30T08:33:55.103Z,14864
2017-01-30T08:34:55.079Z,14552
2017-01-30T08:35:55.066Z,14044
2017-01-30T08:36:55.060Z,13400
2017-01-30T08:37:54.656Z,13120
2017-01-30T08:38:54.614Z,13188
2017-01-30T08:39:54.985Z,13444
2017-01-30T08:40:54.999Z,13820
2017-01-30T08:41:54.949Z,14152
2017-01-30T08:42:54.906Z,14520
2017-01-30T08:43:54.892Z,14708
2017-01-30T08:44:54.885Z,14816
2017-01-30T08:45:54.868Z,15052
2017-01-30T08:46:54.857Z,15396
2017-01-30T08:47:54.812Z,15660
2017-01-30T08:48:54.822Z,16000
2017-01-30T08:49:54.775Z,16236
2017-01-30T08:50:54.764Z,16672
2017-01-30T08:51:54.965Z,17280
2017-01-30T08:52:54.727Z,17824
2017-01-30T08:53:54.729Z,18368
2017-01-30T08:54:54.668Z,19104
2017-01-30T08:55:54.684Z,19648
2017-01-30T08:56:54.845Z,19328
2017-01-30T08:57:54.628Z,19104
2017-01-30T08:58:54.591Z,18784
2017-01-30T08:59:54.583Z,18464
2017-01-30T09:00:54.562Z,18176
2017-01-30T09:01:54.559Z,17076
2017-01-30T09:02:54.520Z,16872
2017-01-30T09:03:54.503Z,16248
2017-01-30T09:04:54.468Z,15120
2017-01-30T09:05:54.473Z,14028
2017-01-30T09:06:54.418Z,13368
2017-01-30T09:07:54.402Z,12832
2017-01-30T09:08:53.623Z,12396
2017-01-30T09:09:54.367Z,12020
2017-01-30T09:10:54.343Z,11660
2017-01-30T09:11:54.355Z,11316
2017-01-30T09:12:54.308Z,11024
2017-01-30T09:13:54.302Z,10744
2017-01-30T09:14:54.265Z,10488
2017-01-30T09:15:54.242Z,10280
2017-01-30T09:16:54.224Z,10148
2017-01-30T09:17:53.822Z,10088
2017-01-30T09:18:54.196Z,10136
2017-01-30T09:19:54.170Z,10264
2017-01-30T09:20:54.148Z,10476
2017-01-30T09:21:53.726Z,10788
2017-01-30T09:22:53.717Z,11228
2017-01-30T09:23:54.106Z,11780
2017-01-30T09:24:53.686Z,12552
2017-01-30T09:25:54.062Z,13588
2017-01-30T09:26:53.636Z,14492
2017-01-30T09:27:54.030Z,15176
2017-01-30T09:28:54.026Z,15964
2017-01-30T09:29:54.173Z,16852
2017-01-30T09:30:53.760Z,18240
2017-01-30T09:31:53.557Z,19648
2017-01-30T09:32:53.902Z,21056
2017-01-30T09:33:53.925Z,21696
2017-01-30T09:34:53.480Z,22208
2017-01-30T09:35:53.840Z,22752
2017-01-30T09:36:53.823Z,22976
2017-01-30T09:37:53.786Z,23264
2017-01-30T09:38:53.765Z,23488
2017-01-30T09:39:53.774Z,23840
2017-01-30T09:40:53.743Z,24192
2017-01-30T09:41:53.769Z,24576
2017-01-30T09:42:53.705Z,24832
2017-01-30T09:43:53.688Z,24896
2017-01-30T09:44:53.649Z,24608
2017-01-30T09:45:53.646Z,24544
2017-01-30T09:46:53.624Z,24928
2017-01-30T09:47:53.595Z,25472
2017-01-30T09:48:53.601Z,25760
2017-01-30T09:49:53.577Z,25888
2017-01-30T09:50:53.537Z,26016
2017-01-30T09:51:53.528Z,26016
2017-01-30T09:52:53.539Z,26336
2017-01-30T09:53:53.479Z,26496
2017-01-30T09:54:53.466Z,26368
2017-01-30T09:55:53.434Z,25696
2017-01-30T09:56:53.430Z,24672
2017-01-30T09:57:53.417Z,23680
2017-01-30T09:58:53.004Z,22720
2017-01-30T09:59:53.357Z,22016
2017-01-30T10:00:53.351Z,22208
2017-01-30T10:01:53.320Z,23360
2017-01-30T10:02:53.516Z,24064
2017-01-30T10:03:53.270Z,24448
2017-01-30T10:04:53.277Z,24576
2017-01-30T10:05:53.262Z,24512
2017-01-30T10:06:53.232Z,25472
2017-01-30T10:07:53.191Z,27264
2017-01-30T10:08:53.184Z,28800
2017-01-30T10:09:53.170Z,29888
2017-01-30T10:10:53.153Z,32000
2017-01-30T10:11:53.119Z,32768
2017-01-30T10:12:53.113Z,35648
2017-01-30T10:13:52.717Z,34688
2017-01-30T10:14:53.067Z,33792
2017-01-30T10:15:53.046Z,34720
2017-01-30T10:16:53.043Z,35360
2017-01-30T10:17:53.022Z,36384
2017-01-30T10:18:52.986Z,37824
2017-01-30T10:19:52.969Z,41632
2017-01-30T10:20:52.963Z,42304
2017-01-30T10:21:52.926Z,43328
2017-01-30T10:22:52.916Z,43328
2017-01-30T10:23:52.909Z,49984
2017-01-30T10:24:52.887Z,42912
2017-01-30T10:25:52.870Z,40224
2017-01-30T10:26:52.839Z,38048
2017-01-30T10:27:52.813Z,37568
2017-01-30T10:28:52.809Z,36864
2017-01-30T10:29:52.782Z,38208
2017-01-30T10:30:52.770Z,35616
2017-01-30T10:31:52.741Z,31648
2017-01-30T10:32:52.717Z,29856
2017-01-30T10:33:52.693Z,28480
2017-01-30T10:34:52.676Z,28064
2017-01-30T10:35:52.651Z,29152
2017-01-30T10:36:51.880Z,28768
2017-01-30T10:37:52.624Z,28608
2017-01-30T10:38:52.611Z,28128
2017-01-30T10:39:52.583Z,28384
2017-01-30T10:40:52.562Z,28896
2017-01-30T10:41:52.569Z,29792
2017-01-30T10:42:52.152Z,31104
2017-01-30T10:43:52.516Z,32160
2017-01-30T10:44:52.496Z,32576
2017-01-30T10:45:52.484Z,34592
2017-01-30T10:46:52.460Z,33696
2017-01-30T10:47:52.424Z,32032
2017-01-30T10:48:52.401Z,31904
2017-01-30T10:49:52.404Z,33056
2017-01-30T10:50:52.373Z,33536
2017-01-30T10:51:52.356Z,33632
2017-01-30T10:52:52.351Z,33536
2017-01-30T10:53:52.325Z,32640
2017-01-30T10:54:52.296Z,31616
2017-01-30T10:55:52.277Z,32224
2017-01-30T10:56:52.275Z,31264
2017-01-30T10:57:52.241Z,29600
2017-01-30T10:58:52.235Z,28224
2017-01-30T10:59:51.821Z,26976
2017-01-30T11:00:51.802Z,25184
2017-01-30T11:01:52.164Z,24160
2017-01-30T11:02:52.155Z,24416
2017-01-30T11:03:51.756Z,24288
2017-01-30T11:04:52.119Z,23744
2017-01-30T11:05:52.087Z,24640
2017-01-30T11:06:52.067Z,26592
2017-01-30T11:07:52.063Z,28864
2017-01-30T11:08:51.652Z,31040
2017-01-30T11:09:52.003Z,31040
2017-01-30T11:10:51.609Z,29824
2017-01-30T11:11:51.981Z,30720
2017-01-30T11:12:51.569Z,31904
2017-01-30T11:13:51.933Z,31008
2017-01-30T11:14:51.925Z,28256
2017-01-30T11:15:51.883Z,26176
2017-01-30T11:16:51.879Z,25568
2017-01-30T11:17:51.864Z,25440
2017-01-30T11:18:51.832Z,25888
2017-01-30T11:19:51.801Z,26176
2017-01-30T11:20:51.832Z,26016
2017-01-30T11:21:51.765Z,26080
2017-01-30T11:22:51.796Z,25728
2017-01-30T11:23:51.732Z,25664
2017-01-30T11:24:51.730Z,26080
2017-01-30T11:25:51.704Z,25728
2017-01-30T11:26:51.673Z,25728
2017-01-30T11:27:51.654Z,25824
2017-01-30T11:28:51.660Z,26080
2017-01-30T11:29:51.625Z,26336
2017-01-30T11:30:51.588Z,26176
2017-01-30T11:31:51.576Z,25696
2017-01-30T11:32:51.584Z,25600
2017-01-30T11:33:51.530Z,25952
2017-01-30T11:34:51.526Z,26080
2017-01-30T11:35:51.518Z,26304
2017-01-30T11:36:51.469Z,26656
2017-01-30T11:37:51.469Z,25984
2017-01-30T11:38:51.447Z,24352
2017-01-30T11:39:51.488Z,23648
2017-01-30T11:40:51.413Z,23136
2017-01-30T11:41:51.390Z,24000
2017-01-30T11:42:51.371Z,22304
2017-01-30T11:43:51.361Z,20096
2017-01-30T11:44:51.342Z,19840
2017-01-30T11:45:51.306Z,18944
2017-01-30T11:46:51.301Z,18368
2017-01-30T11:47:51.270Z,17948
2017-01-30T11:48:51.252Z,17912
2017-01-30T11:49:51.243Z,18432
2017-01-30T11:50:51.235Z,18912
2017-01-30T11:51:51.194Z,18784
2017-01-30T11:52:51.159Z,18752
2017-01-30T11:53:51.156Z,20576
2017-01-30T11:54:51.139Z,21120
2017-01-30T11:55:51.118Z,22144
2017-01-30T11:56:51.096Z,22944
2017-01-30T11:57:51.063Z,23712
2017-01-30T11:58:51.056Z,23200
2017-01-30T11:59:51.036Z,22048
2017-01-30T12:00:51.019Z,21888
2017-01-30T12:01:51.016Z,21408
2017-01-30T12:02:50.984Z,21376
2017-01-30T12:03:50.965Z,22592
2017-01-30T12:04:50.954Z,23648
2017-01-30T12:05:50.918Z,23552
2017-01-30T12:06:50.903Z,21152
2017-01-30T12:07:50.882Z,20096
2017-01-30T12:08:50.882Z,19616
2017-01-30T12:09:50.854Z,20032
2017-01-30T12:10:50.841Z,21312
2017-01-30T12:11:50.823Z,22464
2017-01-30T12:12:50.778Z,22720
2017-01-30T12:13:50.381Z,21984
2017-01-30T12:14:50.732Z,20896
2017-01-30T12:15:50.728Z,20384
2017-01-30T12:16:50.704Z,20512
2017-01-30T12:17:50.687Z,20128
2017-01-30T12:18:50.665Z,20352
2017-01-30T12:19:50.654Z,20544
2017-01-30T12:20:50.687Z,20672
2017-01-30T12:21:50.617Z,20416
2017-01-30T12:22:50.594Z,20032
2017-01-30T12:23:50.558Z,20160
2017-01-30T12:24:50.547Z,20448
2017-01-30T12:25:50.525Z,21632
2017-01-30T12:26:50.509Z,23040
2017-01-30T12:27:50.484Z,23904
2017-01-30T12:28:50.467Z,25024
2017-01-30T12:29:50.439Z,25920
2017-01-30T12:30:50.441Z,27904
2017-01-30T12:31:50.427Z,28512
2017-01-30T12:32:50.392Z,28128
2017-01-30T12:33:50.004Z,27200
2017-01-30T12:34:50.339Z,26688
2017-01-30T12:35:50.331Z,26272
2017-01-30T12:36:50.323Z,24928
2017-01-30T12:37:50.296Z,24608
2017-01-30T12:38:50.290Z,23232
2017-01-30T12:39:50.290Z,24384
2017-01-30T12:40:50.243Z,26880
2017-01-30T12:41:50.237Z,27072
2017-01-30T12:42:50.200Z,25248
2017-01-30T12:43:50.202Z,22784
2017-01-30T12:44:50.176Z,22400
2017-01-30T12:45:50.166Z,21984
2017-01-30T12:46:50.137Z,21888
2017-01-30T12:47:50.109Z,21376
2017-01-30T12:48:50.066Z,22368
2017-01-30T12:49:50.068Z,23328
2017-01-30T12:50:50.028Z,23424
2017-01-30T12:51:50.028Z,23680
2017-01-30T12:52:50.018Z,24864
2017-01-30T12:53:49.970Z,24288
2017-01-30T12:54:49.569Z,20544
2017-01-30T12:55:49.943Z,19680
2017-01-30T12:56:49.919Z,20640
2017-01-30T12:57:49.915Z,21344
2017-01-30T12:58:49.891Z,21344
2017-01-30T12:59:49.873Z,21184
2017-01-30T13:00:49.840Z,20384
2017-01-30T13:01:49.836Z,19968
2017-01-30T13:02:49.810Z,18880
2017-01-30T13:03:49.407Z,17440
2017-01-30T13:04:49.376Z,16588
2017-01-30T13:05:48.968Z,16236
2017-01-30T13:06:49.340Z,15848
2017-01-30T13:07:49.336Z,15664
2017-01-30T13:08:49.301Z,15880
2017-01-30T13:09:49.690Z,15932
2017-01-30T13:10:49.639Z,15864
2017-01-30T13:11:49.263Z,15720
2017-01-30T13:12:49.616Z,15480
2017-01-30T13:13:49.596Z,15016
2017-01-30T13:14:49.577Z,13816
2017-01-30T13:15:49.564Z,12672
2017-01-30T13:16:49.529Z,11832
2017-01-30T13:17:49.516Z,11152
2017-01-30T13:18:49.498Z,10340
2017-01-30T13:19:49.480Z,9588
2017-01-30T13:20:49.457Z,9220
2017-01-30T13:21:49.442Z,8840
2017-01-30T13:22:49.427Z,8472
2017-01-30T13:23:49.391Z,7916
2017-01-30T13:24:49.380Z,7540
2017-01-30T13:25:49.367Z,7128
2017-01-30T13:26:49.341Z,7024
2017-01-30T13:27:49.312Z,7076
2017-01-30T13:28:49.300Z,7016
2017-01-30T13:29:49.273Z,6892
2017-01-30T13:30:49.265Z,6912
2017-01-30T13:31:49.255Z,6728
2017-01-30T13:32:49.206Z,6460
2017-01-30T13:33:49.205Z,6416
2017-01-30T13:34:49.173Z,6376
2017-01-30T13:35:49.163Z,6304
2017-01-30T13:36:49.138Z,6188
2017-01-30T13:37:49.125Z,6076
2017-01-30T13:38:49.127Z,6156
2017-01-30T13:39:49.090Z,6496
2017-01-30T13:40:49.053Z,6620
2017-01-30T13:41:49.022Z,7184
2017-01-30T13:42:49.021Z,7424
2017-01-30T13:43:49.001Z,7712
2017-01-30T13:44:48.959Z,7724
2017-01-30T13:45:48.966Z,7784
2017-01-30T13:46:48.552Z,7840